Time;durP1;ratioP1;P1;durP2;ratioP2;P2;SDS_P1;SDS_P2;PMS_P1;PMS_P2;Temp;Humidity;BMP_temperature;BMP_pressure;BME280_temperature;BME280_humidity;BME280_pressure;Samples;Min_cycle;Max_cycle;Signal;HPM_P1;HPM_P2
2023/06/22 00:02:21;;;;;;;;;;;;;;;9.74;100.00;99808.59;6095819;23;20392;-81
2023/06/22 00:04:46;;;;;;;;;;;;;;;9.80;100.00;99796.91;6098475;23;20285;-83
2023/06/22 08:45:02;;;;;;;;;;;;;;;9.75;100.00;99371.09;6122481;23;19968;-80
2023/06/22 08:47:35;;;;;;;;;;;;;;;9.79;100.00;99372.66;6101139;23;19924;-85
2023/06/22 08:50:03;;;;;;;;;;;;;;;9.81;100.00;99367.31;6125802;23;19916;-80
2023/06/22 08:52:28;;;;;;;;;;;;;;;9.79;100.00;99383.25;6127026;23;20360;-81
2023/06/22 08:54:53;;;;;;;;;;;;;;;9.78;100.00;99375.38;6127011;23;19991;-80
2023/06/22 08:57:18;;;;;;;;;;;;;;;9.77;100.00;99389.56;6099434;23;19975;-80
2023/06/22 08:59:43;;;;;;;;;;;;;;;9.74;100.00;99389.69;6126766;23;19913;-80
2023/06/22 09:02:09;;;;;;;;;;;;;;;9.71;100.00;99381.91;6126870;23;19940;-81
2023/06/22 09:04:36;;;;;;;;;;;;;;;9.73;100.00;99380.03;6100836;23;19917;-80
2023/06/22 09:07:02;;;;;;;;;;;;;;;9.81;100.00;99386.72;6126756;23;19917;-81
2023/06/22 09:09:27;;;;;;;;;;;;;;;9.77;100.00;99382.47;6126829;23;20293;-80
2023/06/22 09:11:52;;;;;;;;;;;;;;;9.78;100.00;99375.38;6127088;23;20003;-81
2023/06/22 09:14:18;;;;;;;;;;;;;;;9.78;100.00;99359.50;6125124;23;19943;-80
2023/06/22 09:16:43;;;;;;;;;;;;;;;9.82;100.00;99351.34;6126594;23;20352;-81
2023/06/22 09:19:09;;;;;;;;;;;;;;;9.87;100.00;99348.50;6125178;23;19992;-80
2023/06/22 09:21:34;;;;;;;;;;;;;;;9.93;100.00;99342.91;6126641;23;20289;-80
2023/06/22 09:23:59;;;;;;;;;;;;;;;9.88;100.00;99346.72;6126970;23;19936;-80
2023/06/22 09:26:25;;;;;;;;;;;;;;;9.83;100.00;99352.25;6125051;23;19917;-80
2023/06/22 09:28:50;;;;;;;;;;;;;;;9.84;100.00;99364.53;6125051;23;19980;-80
2023/06/22 09:31:16;;;;;;;;;;;;;;;9.80;100.00;99384.13;6126434;23;19923;-80
2023/06/22 09:33:42;;;;;;;;;;;;;;;9.89;100.00;99385.47;6100516;23;19913;-80
2023/06/22 09:36:07;;;;;;;;;;;;;;;9.88;100.00;99381.97;6100620;23;19939;-80
2023/06/22 09:38:36;;;;;;;;;;;;;;;9.88;100.00;99374.03;6126443;23;19948;-80
2023/06/22 09:41:01;;;;;;;;;;;;;;;9.89;100.00;99359.00;6126622;23;19913;-79
2023/06/22 09:43:27;;;;;;;;;;;;;;;9.92;100.00;99358.88;6124531;23;20315;-80
2023/06/22 09:45:52;;;;;;;;;;;;;;;9.86;100.00;99349.44;6126466;23;19920;-81
2023/06/22 09:48:17;;;;;;;;;;;;;;;9.87;100.00;99342.34;6126450;23;19913;-80
2023/06/22 09:50:42;;;;;;;;;;;;;;;9.88;100.00;99347.59;6126303;23;19913;-80
2023/06/22 09:53:08;;;;;;;;;;;;;;;9.87;100.00;99340.56;6126433;23;20264;-82
2023/06/22 09:55:33;;;;;;;;;;;;;;;9.92;100.00;99335.91;6126468;23;19960;-81
2023/06/22 09:57:58;;;;;;;;;;;;;;;9.88;100.00;99326.41;6124735;23;19912;-81
2023/06/22 10:00:23;;;;;;;;;;;;;;;9.98;100.00;99327.69;6126337;23;19936;-82
2023/06/22 10:02:50;;;;;;;;;;;;;;;9.92;100.00;99320.03;6126090;23;20000;-81
2023/06/22 10:05:15;;;;;;;;;;;;;;;9.94;100.00;99326.13;6126597;23;19979;-81
2023/06/22 10:07:43;;;;;;;;;;;;;;;9.92;100.00;99320.03;6126363;23;20333;-81
2023/06/22 10:10:09;;;;;;;;;;;;;;;9.95;100.00;99313.75;6126180;23;19924;-82
2023/06/22 10:12:34;;;;;;;;;;;;;;;9.95;100.00;99308.44;6124488;23;20310;-82
2023/06/22 10:14:59;;;;;;;;;;;;;;;9.95;100.00;99309.28;6125947;23;19944;-81
2023/06/22 10:17:25;;;;;;;;;;;;;;;9.99;100.00;99308.22;6124712;23;19913;-80
2023/06/22 10:19:50;;;;;;;;;;;;;;;10.00;100.00;99307.31;6125937;23;20277;-81
2023/06/22 10:22:15;;;;;;;;;;;;;;;9.99;100.00;99302.94;6126136;23;20344;-82
2023/06/22 10:24:44;;;;;;;;;;;;;;;10.01;100.00;99308.16;6100126;23;19913;-83
2023/06/22 10:27:10;;;;;;;;;;;;;;;9.99;100.00;99307.38;6125550;23;19912;-82
2023/06/22 10:29:35;;;;;;;;;;;;;;;9.99;100.00;99295.00;6125200;23;19913;-82
2023/06/22 10:32:01;;;;;;;;;;;;;;;10.03;100.00;99297.50;6124542;23;19913;-81
2023/06/22 10:34:26;;;;;;;;;;;;;;;10.03;100.00;99286.91;6126169;23;19968;-83
2023/06/22 10:36:51;;;;;;;;;;;;;;;10.06;100.00;99292.06;6100088;23;19913;-81
2023/06/22 10:39:17;;;;;;;;;;;;;;;10.06;100.00;99287.59;6126162;23;19948;-82
2023/06/22 10:41:42;;;;;;;;;;;;;;;10.11;100.00;99276.81;6125875;23;20329;-83
2023/06/22 10:44:07;;;;;;;;;;;;;;;10.12;100.00;99274.06;6124083;23;20337;-82
2023/06/22 10:46:32;;;;;;;;;;;;;;;10.14;100.00;99271.34;6099991;23;20327;-82
2023/06/22 10:48:58;;;;;;;;;;;;;;;10.12;100.00;99265.28;6125921;23;19921;-80
2023/06/22 10:51:24;;;;;;;;;;;;;;;10.15;100.00;99257.19;6125933;23;19917;-81
2023/06/22 10:53:50;;;;;;;;;;;;;;;10.12;100.00;99263.50;6099852;23;19920;-81
2023/06/22 10:56:16;;;;;;;;;;;;;;;10.16;100.00;99261.53;6124459;23;19955;-83
2023/06/22 10:58:41;;;;;;;;;;;;;;;10.17;100.00;99265.91;6124084;23;19913;-83
2023/06/22 11:01:06;;;;;;;;;;;;;;;10.21;100.00;99269.25;6099953;23;19913;-82
2023/06/22 11:03:31;;;;;;;;;;;;;;;10.19;100.00;99264.03;6125537;23;20332;-83
2023/06/22 11:05:57;;;;;;;;;;;;;;;10.19;100.00;99256.09;6125666;23;20256;-81
2023/06/22 11:08:22;;;;;;;;;;;;;;;10.18;100.00;99257.03;6099958;23;19917;-81
2023/06/22 11:10:47;;;;;;;;;;;;;;;10.21;100.00;99254.25;6126369;23;19923;-81
2023/06/22 11:13:12;;;;;;;;;;;;;;;10.18;100.00;99241.16;6124163;23;19999;-82
2023/06/22 11:15:38;;;;;;;;;;;;;;;10.18;100.00;99246.47;6099743;23;19912;-81
2023/06/22 11:18:05;;;;;;;;;;;;;;;10.20;100.00;99244.59;6125763;23;19944;-82
2023/06/22 11:20:30;;;;;;;;;;;;;;;10.30;100.00;99240.53;6125692;23;19916;-83
2023/06/22 11:22:55;;;;;;;;;;;;;;;10.29;100.00;99248.53;6124688;23;19967;-83
2023/06/22 11:25:21;;;;;;;;;;;;;;;10.26;100.00;99241.63;6125417;23;20329;-81
2023/06/22 11:27:46;;;;;;;;;;;;;;;10.25;100.00;99241.72;6124054;23;19921;-81
2023/06/22 11:30:11;;;;;;;;;;;;;;;10.24;100.00;99242.63;6124355;23;19949;-81
2023/06/22 11:32:36;;;;;;;;;;;;;;;10.24;100.00;99245.28;6125519;23;19972;-79
2023/06/22 11:35:02;;;;;;;;;;;;;;;10.22;100.00;99236.56;6125497;23;20420;-82
2023/06/22 11:37:27;;;;;;;;;;;;;;;10.22;100.00;99232.13;6099743;23;19917;-81
2023/06/22 11:39:54;;;;;;;;;;;;;;;10.25;100.00;99236.41;6125459;23;20315;-81
2023/06/22 11:42:20;;;;;;;;;;;;;;;10.26;100.00;99220.44;6123904;23;20373;-81
2023/06/22 11:44:45;;;;;;;;;;;;;;;10.23;100.00;99228.53;6123371;23;19920;-83
2023/06/22 11:47:10;;;;;;;;;;;;;;;10.22;100.00;99216.22;6125455;23;19912;-82
2023/06/22 11:49:36;;;;;;;;;;;;;;;10.21;100.00;99218.94;6125749;23;20322;-81
2023/06/22 11:52:01;;;;;;;;;;;;;;;10.20;100.00;99223.41;6125322;23;19913;-83
2023/06/22 11:54:26;;;;;;;;;;;;;;;10.19;100.00;99187.25;6125816;23;20332;-81
2023/06/22 11:56:51;;;;;;;;;;;;;;;10.21;100.00;99193.34;6125558;23;19913;-79
2023/06/22 11:59:17;;;;;;;;;;;;;;;10.20;100.00;99206.66;6122329;23;19917;-81
2023/06/22 12:01:42;;;;;;;;;;;;;;;10.21;100.00;99192.47;6125323;23;19912;-81
2023/06/22 12:04:10;;;;;;;;;;;;;;;10.22;100.00;99196.84;6125292;23;19996;-81
2023/06/22 12:06:38;;;;;;;;;;;;;;;10.21;100.00;99198.66;6125354;23;19945;-81
2023/06/22 12:09:04;;;;;;;;;;;;;;;10.21;100.00;99213.66;6125410;23;19909;-81
2023/06/22 12:11:29;;;;;;;;;;;;;;;10.22;100.00;99205.63;6125222;23;20317;-79
2023/06/22 12:13:54;;;;;;;;;;;;;;;10.21;100.00;99213.66;6123559;23;19920;-84
2023/06/22 12:16:21;;;;;;;;;;;;;;;10.25;100.00;99196.69;6125330;23;19913;-82
2023/06/22 12:18:46;;;;;;;;;;;;;;;10.24;100.00;99197.63;6125225;23;19917;-81
2023/06/22 12:21:12;;;;;;;;;;;;;;;10.25;100.00;99200.19;6125280;23;19971;-82
2023/06/22 12:23:37;;;;;;;;;;;;;;;10.23;100.00;99201.19;6125200;23;19924;-81
2023/06/22 12:26:02;;;;;;;;;;;;;;;10.21;100.00;99203.94;6125160;23;19913;-81
2023/06/22 12:28:27;;;;;;;;;;;;;;;10.21;100.00;99193.34;6123590;23;19920;-81
2023/06/22 12:30:53;;;;;;;;;;;;;;;10.25;100.00;99194.06;6125249;23;19920;-81
2023/06/22 12:33:18;;;;;;;;;;;;;;;10.22;100.00;99187.09;6125240;23;19913;-81
2023/06/22 12:35:45;;;;;;;;;;;;;;;10.26;100.00;99196.63;6125150;23;19913;-81
2023/06/22 12:38:10;;;;;;;;;;;;;;;10.27;100.00;99193.00;6125085;23;19968;-81
2023/06/22 12:40:35;;;;;;;;;;;;;;;10.29;100.00;99180.56;6125358;23;19913;-81
2023/06/22 12:43:02;;;;;;;;;;;;;;;10.27;100.00;99169.19;6123229;23;19913;-80
2023/06/22 12:45:28;;;;;;;;;;;;;;;10.23;100.00;99154.41;6123452;23;20248;-80
2023/06/22 12:47:54;;;;;;;;;;;;;;;10.48;100.00;99167.28;6125136;23;20249;-80
2023/06/22 12:50:19;;;;;;;;;;;;;;;10.64;100.00;99151.44;6125121;23;19917;-79
2023/06/22 12:52:44;;;;;;;;;;;;;;;10.44;100.00;99148.97;6099695;23;19920;-80
2023/06/22 12:55:09;;;;;;;;;;;;;;;10.36;100.00;99146.72;6125073;23;19917;-80
2023/06/22 12:57:35;;;;;;;;;;;;;;;10.63;100.00;99139.09;6123645;23;20277;-81
2023/06/22 13:00:00;;;;;;;;;;;;;;;10.43;100.00;99145.44;6099624;23;19940;-80
2023/06/22 13:02:26;;;;;;;;;;;;;;;10.45;100.00;99137.41;6125083;23;19988;-81
2023/06/22 13:04:51;;;;;;;;;;;;;;;10.43;100.00;99147.25;6124815;23;19937;-82
2023/06/22 13:07:16;;;;;;;;;;;;;;;10.42;100.00;99154.34;6125337;23;19913;-82
2023/06/22 13:09:41;;;;;;;;;;;;;;;10.50;100.00;99153.94;6126095;23;19960;-83
2023/06/22 13:12:07;;;;;;;;;;;;;;;10.39;100.00;99174.81;6126819;23;19917;-82
2023/06/22 13:14:32;;;;;;;;;;;;;;;10.27;100.00;99171.00;6099570;23;19913;-83
2023/06/22 13:16:57;;;;;;;;;;;;;;;10.61;100.00;99190.44;6126774;23;19952;-83
2023/06/22 13:19:23;;;;;;;;;;;;;;;10.49;100.00;99197.25;6126724;23;19920;-81
2023/06/22 13:21:48;;;;;;;;;;;;;;;10.47;100.00;99209.72;6101175;23;19913;-82
2023/06/22 13:24:13;;;;;;;;;;;;;;;10.28;100.00;99215.06;6126814;23;20333;-81
2023/06/22 13:26:38;;;;;;;;;;;;;;;10.15;100.00;99206.91;6126700;23;19955;-82
2023/06/22 13:29:04;;;;;;;;;;;;;;;10.12;100.00;99209.69;6125273;23;19912;-81
2023/06/22 13:31:29;;;;;;;;;;;;;;;10.16;100.00;99208.59;6126713;23;19917;-84
2023/06/22 13:33:54;;;;;;;;;;;;;;;10.13;100.00;99214.03;6126557;23;20257;-81
2023/06/22 13:36:19;;;;;;;;;;;;;;;10.13;100.00;99200.81;6127008;23;19921;-82
2023/06/22 13:38:45;;;;;;;;;;;;;;;10.06;100.00;99196.75;6126822;23;19913;-81
2023/06/22 13:41:10;;;;;;;;;;;;;;;10.10;100.00;99182.41;6126485;23;20036;-81
2023/06/22 13:43:35;;;;;;;;;;;;;;;10.07;100.00;99182.56;6123139;23;19921;-81
2023/06/22 13:46:00;;;;;;;;;;;;;;;10.06;100.00;99179.09;6126353;23;19923;-81
2023/06/22 13:48:28;;;;;;;;;;;;;;;10.40;100.00;99187.13;6126467;23;19941;-81
2023/06/22 13:50:53;;;;;;;;;;;;;;;10.56;100.00;99185.38;6124760;23;19913;-82
2023/06/22 13:53:18;;;;;;;;;;;;;;;10.43;100.00;99179.88;6126462;23;19913;-81
2023/06/22 13:55:44;;;;;;;;;;;;;;;10.69;100.00;99186.47;6126405;23;20230;-81
2023/06/22 13:58:09;;;;;;;;;;;;;;;10.43;100.00;99189.63;6123187;23;19919;-81
2023/06/22 14:00:34;;;;;;;;;;;;;;;10.27;100.00;99185.06;6126367;23;19917;-81
2023/06/22 14:02:59;;;;;;;;;;;;;;;10.13;100.00;99195.50;6126222;23;20410;-81
2023/06/22 14:05:25;;;;;;;;;;;;;;;10.22;100.00;99188.91;6124756;23;19920;-81
2023/06/22 14:07:50;;;;;;;;;;;;;;;10.22;100.00;99192.41;6126313;23;20326;-80
2023/06/22 14:10:15;;;;;;;;;;;;;;;10.14;100.00;99186.66;6126295;23;19917;-81
2023/06/22 14:12:40;;;;;;;;;;;;;;;10.24;100.00;99179.09;6124905;23;19920;-81
2023/06/22 14:15:06;;;;;;;;;;;;;;;10.10;100.00;99174.47;6126029;23;20000;-81
2023/06/22 14:17:32;;;;;;;;;;;;;;;10.06;100.00;99170.28;6126557;23;20289;-81
2023/06/22 14:19:57;;;;;;;;;;;;;;;10.02;100.00;99187.25;6126129;23;19921;-81
2023/06/22 14:22:23;;;;;;;;;;;;;;;9.98;100.00;99182.09;6126678;23;19924;-80
2023/06/22 14:24:48;;;;;;;;;;;;;;;10.07;100.00;99179.94;6126092;23;19988;-81
2023/06/22 14:27:14;;;;;;;;;;;;;;;10.12;100.00;99185.88;6125812;23;20352;-81
2023/06/22 14:29:39;;;;;;;;;;;;;;;10.02;100.00;99192.53;6125127;23;19913;-81
2023/06/22 14:32:06;;;;;;;;;;;;;;;10.02;100.00;99182.84;6125985;23;19917;-82
2023/06/22 14:34:31;;;;;;;;;;;;;;;12.99;100.00;99156.53;6126054;23;19976;-81
2023/06/22 14:36:56;;;;;;;;;;;;;;;10.96;100.00;99179.78;6125874;23;19944;-81
2023/06/22 14:39:22;;;;;;;;;;;;;;;10.55;100.00;99175.75;6125973;23;19913;-81
2023/06/22 14:41:47;;;;;;;;;;;;;;;10.40;100.00;99172.09;6125970;23;19916;-81
2023/06/22 14:44:12;;;;;;;;;;;;;;;10.29;100.00;99169.09;6097873;23;19947;-81
2023/06/22 14:46:37;;;;;;;;;;;;;;;10.20;100.00;99170.44;6125561;23;20004;-81
2023/06/22 14:49:03;;;;;;;;;;;;;;;10.21;100.00;99171.28;6122972;23;19956;-81
2023/06/22 14:51:28;;;;;;;;;;;;;;;10.18;100.00;99167.03;6121018;23;19913;-81
2023/06/22 14:53:53;;;;;;;;;;;;;;;10.13;100.00;99172.56;6124216;23;19964;-80
2023/06/22 14:56:18;;;;;;;;;;;;;;;10.14;100.00;99165.47;6124555;23;19920;-81
2023/06/22 14:58:47;;;;;;;;;;;;;;;10.13;100.00;99171.69;6121488;23;19912;-81
2023/06/22 15:01:12;;;;;;;;;;;;;;;10.13;100.00;99169.91;6122028;23;19960;-81
2023/06/22 15:03:38;;;;;;;;;;;;;;;10.07;100.00;99182.56;6124684;23;19921;-84
2023/06/22 15:06:03;;;;;;;;;;;;;;;10.18;100.00;99185.56;6124239;23;19928;-81
2023/06/22 15:08:28;;;;;;;;;;;;;;;10.06;100.00;99179.09;6125448;23;19916;-81
2023/06/22 15:10:54;;;;;;;;;;;;;;;10.03;100.00;99167.81;6124874;23;19928;-82
2023/06/22 15:13:19;;;;;;;;;;;;;;;10.01;100.00;99167.88;6098126;23;19913;-81
2023/06/22 15:15:48;;;;;;;;;;;;;;;10.04;100.00;99172.16;6125658;23;19913;-84
2023/06/22 15:18:13;;;;;;;;;;;;;;;9.97;100.00;99167.19;6125691;23;19913;-81
2023/06/22 15:20:39;;;;;;;;;;;;;;;10.02;100.00;99166.06;6100120;23;20284;-81
2023/06/22 15:23:06;;;;;;;;;;;;;;;10.04;100.00;99180.13;6125750;23;19920;-81
2023/06/22 15:25:31;;;;;;;;;;;;;;;10.09;100.00;99181.56;6125573;23;19976;-81
2023/06/22 15:27:56;;;;;;;;;;;;;;;10.08;100.00;99200.19;6123987;23;19913;-81
2023/06/22 15:30:21;;;;;;;;;;;;;;;10.10;100.00;99185.06;6125467;23;19916;-81
2023/06/22 15:32:49;;;;;;;;;;;;;;;10.09;100.00;99178.94;6123845;23;19988;-81
2023/06/22 15:35:16;;;;;;;;;;;;;;;10.05;100.00;99176.50;6124950;23;19913;-81
2023/06/22 15:37:41;;;;;;;;;;;;;;;10.12;100.00;99193.81;6124737;23;19913;-81
2023/06/22 15:40:07;;;;;;;;;;;;;;;10.21;100.00;99214.53;6125183;23;19986;-81
2023/06/22 15:42:32;;;;;;;;;;;;;;;10.14;100.00;99207.81;6123542;23;19917;-80
2023/06/22 15:44:57;;;;;;;;;;;;;;;10.19;100.00;99211.09;6125015;23;19999;-80
2023/06/22 15:47:23;;;;;;;;;;;;;;;10.10;100.00;99211.53;6124820;23;20246;-80
2023/06/22 15:49:48;;;;;;;;;;;;;;;10.06;100.00;99216.13;6124190;23;20266;-81
2023/06/22 15:52:17;;;;;;;;;;;;;;;10.08;100.00;99216.91;6124610;23;20024;-81
2023/06/22 15:54:43;;;;;;;;;;;;;;;10.18;100.00;99225.28;6122476;23;20363;-81
2023/06/22 15:57:08;;;;;;;;;;;;;;;10.23;100.00;99239.13;6124472;23;19913;-81
2023/06/22 15:59:33;;;;;;;;;;;;;;;10.23;100.00;99244.44;6123604;23;19960;-81
2023/06/22 16:01:58;;;;;;;;;;;;;;;10.33;100.00;99245.69;6125305;23;19920;-84
2023/06/22 16:04:24;;;;;;;;;;;;;;;10.26;100.00;99254.88;6125023;23;20052;-83
2023/06/22 16:06:49;;;;;;;;;;;;;;;10.20;100.00;99252.53;6125232;23;19913;-81
2023/06/22 16:09:14;;;;;;;;;;;;;;;10.22;100.00;99255.94;6125284;23;20501;-81
2023/06/22 16:11:39;;;;;;;;;;;;;;;10.23;100.00;99246.19;6124939;23;19983;-81
2023/06/22 16:14:04;;;;;;;;;;;;;;;10.15;100.00;99254.56;6123984;23;19916;-82
2023/06/22 16:16:30;;;;;;;;;;;;;;;10.20;100.00;99254.31;6123615;23;19913;-81
2023/06/22 16:18:55;;;;;;;;;;;;;;;10.19;100.00;99261.38;6125404;23;19917;-81
2023/06/22 16:21:20;;;;;;;;;;;;;;;10.14;100.00;99255.47;6125440;23;19913;-80
2023/06/22 16:23:46;;;;;;;;;;;;;;;10.09;100.00;99262.78;6123901;23;19913;-81
2023/06/22 16:26:11;;;;;;;;;;;;;;;10.12;100.00;99249.41;6124978;23;19920;-81
2023/06/22 16:28:36;;;;;;;;;;;;;;;10.02;100.00;99256.94;6123813;23;19909;-81
2023/06/22 16:31:01;;;;;;;;;;;;;;;10.04;100.00;99262.16;6123594;23;19916;-80
2023/06/22 16:33:27;;;;;;;;;;;;;;;10.02;100.00;99251.66;6124190;23;20256;-81
2023/06/22 16:35:52;;;;;;;;;;;;;;;10.03;100.00;99257.78;6123562;23;19909;-81
2023/06/22 16:38:17;;;;;;;;;;;;;;;9.99;100.00;99262.38;6125251;23;19917;-80
2023/06/22 16:40:42;;;;;;;;;;;;;;;10.14;100.00;99264.25;6125317;23;19913;-81
2023/06/22 16:43:08;;;;;;;;;;;;;;;10.08;100.00;99269.84;6122578;23;19940;-81
2023/06/22 16:45:34;;;;;;;;;;;;;;;10.03;100.00;99268.38;6126842;23;20610;-81
2023/06/22 16:47:59;;;;;;;;;;;;;;;10.04;100.00;99270.09;6127169;23;19913;-81
2023/06/22 16:50:25;;;;;;;;;;;;;;;10.03;100.00;99281.63;6127299;23;20308;-80
2023/06/22 16:52:50;;;;;;;;;;;;;;;10.07;100.00;99268.16;6127251;23;19913;-80
2023/06/22 16:55:15;;;;;;;;;;;;;;;9.96;100.00;99276.63;6127132;23;19917;-81
2023/06/22 16:57:41;;;;;;;;;;;;;;;9.93;100.00;99295.28;6125386;23;19913;-81
2023/06/22 17:00:09;;;;;;;;;;;;;;;9.99;100.00;99299.44;6127047;23;19921;-80
2023/06/22 17:02:38;;;;;;;;;;;;;;;9.93;100.00;99299.72;6126935;23;19991;-81
2023/06/22 17:05:04;;;;;;;;;;;;;;;10.00;100.00;99293.19;6101353;23;19963;-80
2023/06/22 17:07:33;;;;;;;;;;;;;;;10.02;100.00;99301.94;6126794;23;20345;-81
2023/06/22 17:09:58;;;;;;;;;;;;;;;10.02;100.00;99319.59;6126731;23;19917;-82
2023/06/22 17:12:24;;;;;;;;;;;;;;;10.04;100.00;99313.31;6125497;23;19967;-80
2023/06/22 17:14:51;;;;;;;;;;;;;;;10.04;100.00;99318.59;6126695;23;19917;-81
2023/06/22 17:17:17;;;;;;;;;;;;;;;10.03;100.00;99326.63;6126526;23;19916;-80
2023/06/22 17:19:43;;;;;;;;;;;;;;;10.07;100.00;99325.50;6126111;23;19952;-80
2023/06/22 17:22:09;;;;;;;;;;;;;;;10.03;100.00;99329.25;6126607;23;19916;-80
2023/06/22 17:24:35;;;;;;;;;;;;;;;10.05;100.00;99327.38;6126114;23;19943;-81
2023/06/22 17:27:00;;;;;;;;;;;;;;;10.02;100.00;99332.81;6126180;23;19913;-83
2023/06/22 17:29:35;;;;;;;;;;;;;;;10.02;100.00;99338.13;6124972;23;19913;-82
2023/06/22 17:32:01;;;;;;;;;;;;;;;9.94;100.00;99347.28;6125000;23;19913;-81
2023/06/22 17:34:31;;;;;;;;;;;;;;;10.03;100.00;99350.44;6126243;23;19935;-81
2023/06/22 17:36:57;;;;;;;;;;;;;;;10.05;100.00;99351.22;6126684;23;20309;-81
2023/06/22 17:39:23;;;;;;;;;;;;;;;9.90;100.00;99366.88;6125702;23;19948;-82
2023/06/22 17:41:50;;;;;;;;;;;;;;;9.90;100.00;99364.25;6100512;23;19924;-81
2023/06/22 17:44:25;;;;;;;;;;;;;;;9.92;100.00;99370.31;6124673;23;19924;-82
2023/06/22 17:46:57;;;;;;;;;;;;;;;9.84;100.00;99379.53;6124970;23;19936;-81
2023/06/22 17:49:26;;;;;;;;;;;;;;;9.85;100.00;99382.13;6126173;23;19913;-80
2023/06/22 17:51:52;;;;;;;;;;;;;;;9.84;100.00;99383.03;6126434;23;20242;-80
2023/06/22 17:54:18;;;;;;;;;;;;;;;9.89;100.00;99389.00;6126384;23;19912;-81
2023/06/22 17:56:47;;;;;;;;;;;;;;;9.88;100.00;99404.94;6126704;23;20392;-80
2023/06/22 17:59:12;;;;;;;;;;;;;;;9.86;100.00;99398.84;6125798;23;19988;-81
2023/06/22 18:01:38;;;;;;;;;;;;;;;9.87;100.00;99405.88;6126523;23;19955;-80
2023/06/22 18:04:10;;;;;;;;;;;;;;;9.85;100.00;99410.38;6126579;23;19940;-80
2023/06/22 18:06:37;;;;;;;;;;;;;;;9.86;100.00;99420.91;6100511;23;20000;-80
2023/06/22 18:09:04;;;;;;;;;;;;;;;9.84;100.00;99424.53;6126417;23;20329;-80
2023/06/22 18:11:45;;;;;;;;;;;;;;;9.85;100.00;99424.47;6124946;23;19913;-79
2023/06/22 18:14:13;;;;;;;;;;;;;;;9.79;100.00;99424.72;6124882;23;19917;-80
2023/06/22 18:16:40;;;;;;;;;;;;;;;9.80;100.00;99419.38;6125711;23;20341;-80
2023/06/22 18:19:06;;;;;;;;;;;;;;;9.79;100.00;99432.69;6125440;23;19948;-79
2023/06/22 18:21:31;;;;;;;;;;;;;;;9.77;100.00;99435.38;6125806;23;20252;-80
2023/06/22 18:23:57;;;;;;;;;;;;;;;9.77;100.00;99439.84;6125728;23;20007;-80
2023/06/22 18:26:23;;;;;;;;;;;;;;;9.77;100.00;99440.69;6125654;23;19999;-80
2023/06/22 18:28:50;;;;;;;;;;;;;;;9.77;100.00;99453.06;6124905;23;19913;-80
2023/06/22 18:31:16;;;;;;;;;;;;;;;9.80;100.00;99442.34;6099976;23;20290;-80
2023/06/22 18:33:41;;;;;;;;;;;;;;;9.71;100.00;99454.19;6126118;23;19917;-80
2023/06/22 18:36:06;;;;;;;;;;;;;;;9.75;100.00;99460.22;6124313;23;19912;-80
2023/06/22 18:38:32;;;;;;;;;;;;;;;9.76;100.00;99470.69;6126027;23;19913;-80
2023/06/22 18:40:58;;;;;;;;;;;;;;;9.84;100.00;99466.88;6124631;23;19917;-81
2023/06/22 18:43:24;;;;;;;;;;;;;;;9.76;100.00;99461.91;6122320;23;20317;-80
2023/06/22 18:45:49;;;;;;;;;;;;;;;9.79;100.00;99456.50;6124588;23;19920;-82
2023/06/22 18:48:22;;;;;;;;;;;;;;;9.75;100.00;99458.41;6125772;23;19912;-80
2023/06/22 18:50:49;;;;;;;;;;;;;;;9.79;100.00;99461.78;6125076;23;19920;-81
2023/06/22 18:53:15;;;;;;;;;;;;;;;9.77;100.00;99461.00;6100181;23;19917;-81
2023/06/22 18:55:41;;;;;;;;;;;;;;;9.82;100.00;99474.88;6125688;23;20325;-80
2023/06/22 18:58:18;;;;;;;;;;;;;;;9.76;100.00;99473.34;6124262;23;19919;-80
2023/06/22 19:00:44;;;;;;;;;;;;;;;9.81;100.00;99481.09;6125601;23;19916;-80
2023/06/22 19:03:21;;;;;;;;;;;;;;;9.81;100.00;99475.78;6125913;23;19984;-80
2023/06/22 19:05:47;;;;;;;;;;;;;;;9.79;100.00;99478.50;6124232;23;19968;-82
2023/06/22 19:08:13;;;;;;;;;;;;;;;9.86;100.00;99497.66;6124856;23;19917;-80
2023/06/22 19:10:38;;;;;;;;;;;;;;;9.88;100.00;99498.41;6125429;23;19917;-80
2023/06/22 19:13:16;;;;;;;;;;;;;;;9.90;100.00;99503.66;6099016;23;19987;-80
2023/06/22 19:15:42;;;;;;;;;;;;;;;9.92;100.00;99507.94;6125550;23;19917;-80
2023/06/22 19:18:17;;;;;;;;;;;;;;;9.93;100.00;99507.00;6125832;23;20248;-80
2023/06/22 19:20:45;;;;;;;;;;;;;;;9.86;100.00;99507.34;6125869;23;19917;-80
2023/06/22 19:23:30;;;;;;;;;;;;;;;9.97;100.00;99519.19;6125647;23;19920;-81
2023/06/22 19:25:57;;;;;;;;;;;;;;;9.89;100.00;99516.03;6125738;23;20333;-83
2023/06/22 19:28:26;;;;;;;;;;;;;;;9.93;100.00;99525.53;6124246;23;19913;-81
2023/06/22 19:30:52;;;;;;;;;;;;;;;9.86;100.00;99536.44;6125689;23;19912;-80
2023/06/22 19:33:17;;;;;;;;;;;;;;;9.83;100.00;99548.06;6125710;23;19941;-82
2023/06/22 19:35:42;;;;;;;;;;;;;;;9.88;100.00;99550.50;6125579;23;19913;-81
2023/06/22 19:38:08;;;;;;;;;;;;;;;9.87;100.00;99544.31;6125812;23;19921;-81
2023/06/22 19:40:34;;;;;;;;;;;;;;;9.82;100.00;99548.97;6125458;23;19992;-82
2023/06/22 19:42:59;;;;;;;;;;;;;;;9.84;100.00;99549.75;6124120;23;19999;-81
2023/06/22 19:45:24;;;;;;;;;;;;;;;9.82;100.00;99551.63;6124088;23;20334;-80
2023/06/22 19:47:51;;;;;;;;;;;;;;;9.79;100.00;99546.44;6124025;23;19913;-81
2023/06/22 19:50:19;;;;;;;;;;;;;;;9.77;100.00;99548.31;6122637;23;19916;-82
2023/06/22 19:52:46;;;;;;;;;;;;;;;9.75;100.00;99547.53;6124692;23;19917;-81
2023/06/22 19:55:14;;;;;;;;;;;;;;;9.78;100.00;99556.19;6099307;23;19921;-80
2023/06/22 19:57:46;;;;;;;;;;;;;;;9.79;100.00;99554.38;6123898;23;19976;-80
2023/06/22 20:00:13;;;;;;;;;;;;;;;9.82;100.00;99562.19;6125409;23;19920;-82
2023/06/22 20:02:42;;;;;;;;;;;;;;;9.81;100.00;99560.47;6124101;23;19916;-80
2023/06/22 20:05:08;;;;;;;;;;;;;;;9.77;100.00;99559.75;6125404;23;19995;-81
2023/06/22 20:07:35;;;;;;;;;;;;;;;9.73;100.00;99562.59;6125187;23;20442;-80
2023/06/22 20:10:14;;;;;;;;;;;;;;;9.73;100.00;99568.75;6099424;23;19936;-81
2023/06/22 20:12:40;;;;;;;;;;;;;;;9.82;100.00;99572.78;6123868;23;19917;-81
2023/06/22 20:15:17;;;;;;;;;;;;;;;9.81;100.00;99576.34;6125192;23;19915;-81
2023/06/22 20:17:47;;;;;;;;;;;;;;;9.81;100.00;99571.06;6125479;23;19917;-81
2023/06/22 20:20:22;;;;;;;;;;;;;;;9.78;100.00;99566.78;6102295;23;19921;-81
2023/06/22 20:22:48;;;;;;;;;;;;;;;9.73;100.00;99559.94;6127347;23;19927;-81
2023/06/22 20:25:17;;;;;;;;;;;;;;;9.77;100.00;99572.97;6127161;23;19917;-81
2023/06/22 20:27:43;;;;;;;;;;;;;;;9.80;100.00;99569.34;6125431;23;19916;-85
2023/06/22 20:30:16;;;;;;;;;;;;;;;9.80;100.00;99579.94;6127587;23;20306;-80
2023/06/22 20:32:48;;;;;;;;;;;;;;;10.00;100.00;99576.41;6127586;23;20329;-81
2023/06/22 20:35:14;;;;;;;;;;;;;;;9.84;100.00;99583.31;6127900;23;20238;-81
2023/06/22 20:37:41;;;;;;;;;;;;;;;9.75;100.00;99587.22;6126853;23;20318;-81
2023/06/22 20:40:06;;;;;;;;;;;;;;;9.72;100.00;99604.06;6126868;23;20222;-81
2023/06/22 20:42:32;;;;;;;;;;;;;;;10.04;100.00;99590.41;6119897;23;19924;-81
2023/06/22 20:44:57;;;;;;;;;;;;;;;9.89;100.00;99594.53;6126500;23;20348;-81
2023/06/22 20:47:23;;;;;;;;;;;;;;;10.06;100.00;99594.69;6127151;23;19920;-81
2023/06/22 20:49:48;;;;;;;;;;;;;;;9.85;100.00;99601.75;6101325;23;19913;-81
2023/06/22 20:52:17;;;;;;;;;;;;;;;10.00;100.00;99606.41;6127330;23;19944;-81
2023/06/22 20:54:42;;;;;;;;;;;;;;;10.04;100.00;99611.56;6127138;23;19913;-81
2023/06/22 20:57:07;;;;;;;;;;;;;;;10.33;100.00;99602.38;6125372;23;19971;-82
2023/06/22 20:59:32;;;;;;;;;;;;;;;10.85;100.00;99617.66;6125334;23;20249;-81
2023/06/22 21:01:57;;;;;;;;;;;;;;;11.23;100.00;99620.28;6126898;23;19920;-82
2023/06/22 21:04:23;;;;;;;;;;;;;;;11.39;100.00;99629.22;6125316;23;19921;-81
2023/06/22 21:06:48;;;;;;;;;;;;;;;10.87;100.00;99643.16;6126821;23;19913;-80
2023/06/22 21:09:14;;;;;;;;;;;;;;;11.25;100.00;99645.81;6127296;23;19968;-82
2023/06/22 21:11:41;;;;;;;;;;;;;;;11.70;100.00;99653.41;6127046;23;19913;-81
2023/06/22 21:14:06;;;;;;;;;;;;;;;11.97;100.00;99656.50;6125387;23;20019;-80